Time;durP1;ratioP1;P1;durP2;ratioP2;P2;SDS_P1;SDS_P2;PMS_P1;PMS_P2;Temp;Humidity;BMP_temperature;BMP_pressure;BME280_temperature;BME280_humidity;BME280_pressure;Samples;Min_cycle;Max_cycle;Signal;HPM_P1;HPM_P2
2022/11/23 00:01:32;;;;;;;0.10;0.10;;;;;;;1.31;100.00;99400.50;5001692;28;20113;-74
2022/11/23 00:04:00;;;;;;;0.00;0.00;;;;;;;1.31;100.00;99388.38;5001296;28;20042;-74
2022/11/23 00:06:26;;;;;;;0.00;0.00;;;;;;;1.25;100.00;99393.47;4999223;28;20038;-74
2022/11/23 00:08:52;;;;;;;0.00;0.00;;;;;;;1.17;100.00;99396.84;5006312;28;20034;-74
2022/11/23 00:11:18;;;;;;;0.00;0.00;;;;;;;1.11;100.00;99396.78;5000035;28;20129;-75
2022/11/23 00:13:44;;;;;;;0.00;0.00;;;;;;;1.09;100.00;99396.75;5002685;28;20030;-74
2022/11/23 00:16:18;;;;;;;0.00;0.00;;;;;;;1.09;100.00;99404.53;5004553;28;20056;-74
2022/11/23 00:18:44;;;;;;;0.00;0.00;;;;;;;1.08;100.00;99405.41;5014020;28;20100;-75
2022/11/23 00:21:12;;;;;;;0.00;0.00;;;;;;;1.11;100.00;99404.56;5003441;28;20396;-75
2022/11/23 00:23:38;;;;;;;0.00;0.00;;;;;;;1.11;100.00;99407.16;5008345;28;20037;-74
2022/11/23 00:26:04;;;;;;;0.00;0.00;;;;;;;1.07;100.00;99403.63;5003631;28;20046;-75
2022/11/23 00:28:30;;;;;;;0.00;0.00;;;;;;;1.06;100.00;99407.09;5005534;28;20461;-75
2022/11/23 00:30:56;;;;;;;0.00;0.00;;;;;;;1.04;100.00;99408.78;5002535;28;20046;-74
2022/11/23 00:33:21;;;;;;;0.00;0.00;;;;;;;1.01;100.00;99404.44;5005625;28;20088;-74
2022/11/23 00:35:47;;;;;;;0.00;0.00;;;;;;;0.99;100.00;99405.25;5001886;28;20034;-74
2022/11/23 00:38:12;;;;;;;0.00;0.00;;;;;;;0.98;100.00;99401.78;5019907;28;20037;-74
2022/11/23 00:40:37;;;;;;;0.00;0.00;;;;;;;1.00;100.00;99394.03;5004556;28;20496;-74
2022/11/23 00:43:03;;;;;;;0.00;0.00;;;;;;;1.00;100.00;99404.41;5004405;28;20057;-74
2022/11/23 00:45:29;;;;;;;0.00;0.00;;;;;;;1.01;100.00;99403.56;4990162;28;20392;-74
2022/11/23 00:47:54;;;;;;;0.00;0.00;;;;;;;0.97;100.00;99402.66;5001107;28;20042;-73
2022/11/23 00:50:21;;;;;;;0.00;0.00;;;;;;;0.95;100.00;99408.69;4992015;28;20060;-74
2022/11/23 00:52:48;;;;;;;0.00;0.00;;;;;;;0.85;100.00;99402.47;4990556;28;20087;-75
2022/11/23 00:55:13;;;;;;;0.00;0.00;;;;;;;0.79;100.00;99417.97;5004506;28;20033;-74
2022/11/23 00:57:39;;;;;;;0.00;0.00;;;;;;;0.76;100.00;99415.28;5002637;28;20034;-74
2022/11/23 01:00:05;;;;;;;0.00;0.00;;;;;;;0.73;100.00;99412.66;5004106;28;20477;-74
2022/11/23 01:02:33;;;;;;;0.00;0.00;;;;;;;0.69;100.00;99414.34;4984505;28;20479;-73
2022/11/23 01:04:58;;;;;;;0.00;0.00;;;;;;;0.67;100.00;99408.25;5004197;28;20127;-73
2022/11/23 01:07:24;;;;;;;0.00;0.00;;;;;;;0.65;100.00;99415.13;5045799;23;20087;-73
2022/11/23 01:09:49;;;;;;;0.00;0.00;;;;;;;0.63;100.00;99412.53;5010566;28;20115;-73
2022/11/23 01:12:14;;;;;;;0.00;0.00;;;;;;;0.63;100.00;99406.47;5041886;28;20033;-73
2022/11/23 01:14:40;;;;;;;0.00;0.00;;;;;;;0.63;100.00;99416.84;5044677;28;20032;-73
2022/11/23 01:17:05;;;;;;;0.00;0.00;;;;;;;0.64;100.00;99413.41;5041184;28;20056;-73
2022/11/23 01:19:33;;;;;;;0.00;0.00;;;;;;;0.67;100.00;99409.97;5043732;28;20040;-73
2022/11/23 01:21:58;;;;;;;0.00;0.00;;;;;;;0.71;100.00;99409.16;5043015;28;20025;-73
2022/11/23 01:24:24;;;;;;;0.00;0.00;;;;;;;0.74;100.00;99410.09;5042130;28;20030;-73
2022/11/23 01:26:54;;;;;;;0.00;0.00;;;;;;;0.72;100.00;99411.78;5043679;28;20037;-73
2022/11/23 01:29:20;;;;;;;0.00;0.00;;;;;;;0.70;100.00;99408.28;5037848;28;20044;-73
2022/11/23 01:31:46;;;;;;;0.00;0.00;;;;;;;0.71;100.00;99404.88;5043516;28;20041;-73
2022/11/23 01:34:13;;;;;;;0.00;0.00;;;;;;;0.72;100.00;99409.19;5042767;28;20515;-73
2022/11/23 01:36:39;;;;;;;0.00;0.00;;;;;;;0.70;100.00;99407.41;5038789;28;20026;-73
2022/11/23 01:39:05;;;;;;;0.00;0.00;;;;;;;0.68;100.00;99415.19;5043483;28;20491;-73
2022/11/23 01:41:35;;;;;;;0.00;0.00;;;;;;;0.67;100.00;99417.78;5020178;28;20077;-73
2022/11/23 01:44:48;;;;;;;0.00;0.00;;;;;;;0.64;100.00;99421.19;5043289;28;19998;-73
2022/11/23 01:47:13;;;;;;;0.00;0.00;;;;;;;0.54;100.00;99414.09;5030712;28;20044;-73
2022/11/23 01:49:48;;;;;;;0.00;0.00;;;;;;;0.49;100.00;99418.34;5042003;28;20120;-73
2022/11/23 01:52:23;;;;;;;0.00;0.00;;;;;;;0.44;100.00;99413.06;5041295;28;20068;-73
2022/11/23 01:54:57;;;;;;;0.00;0.00;;;;;;;0.40;100.00;99414.75;5019048;28;20073;-73
2022/11/23 01:57:39;;;;;;;0.00;0.00;;;;;;;0.36;100.00;99428.50;5040918;28;20071;-73
2022/11/23 02:00:05;;;;;;;0.00;0.00;;;;;;;0.30;100.00;99428.41;5037891;28;20439;-73
2022/11/23 02:02:44;;;;;;;0.00;0.00;;;;;;;0.36;100.00;99427.63;5040609;28;20195;-73
2022/11/23 02:05:10;;;;;;;0.00;0.00;;;;;;;0.30;100.00;99420.63;5042871;28;20033;-73
2022/11/23 02:07:37;;;;;;;0.00;0.00;;;;;;;0.28;100.00;99432.69;5038047;28;20037;-73
2022/11/23 02:10:02;;;;;;;0.00;0.00;;;;;;;0.26;100.00;99425.72;5042835;28;20051;-73
2022/11/23 02:12:28;;;;;;;0.00;0.00;;;;;;;0.20;100.00;99427.38;5022805;28;20499;-73
2022/11/23 02:14:53;;;;;;;0.00;0.00;;;;;;;0.14;100.00;99426.41;5003067;28;20069;-73
2022/11/23 02:17:20;;;;;;;0.00;0.00;;;;;;;0.04;100.00;99424.47;5040917;28;20065;-73
2022/11/23 02:20:05;;;;;;;0.00;0.00;;;;;;;-0.04;100.00;99426.94;5026725;28;20604;-73
2022/11/23 02:22:39;;;;;;;0.00;0.00;;;;;;;-0.10;100.00;99422.50;5004292;28;20040;-75
2022/11/23 02:25:21;;;;;;;0.00;0.00;;;;;;;-0.16;100.00;99414.59;5023023;28;20037;-76
2022/11/23 02:27:46;;;;;;;0.00;0.00;;;;;;;-0.21;100.00;99413.63;5039375;28;20118;-75
2022/11/23 02:30:12;;;;;;;0.00;0.00;;;;;;;-0.23;100.00;99407.56;5008878;28;20100;-75
2022/11/23 02:32:37;;;;;;;0.00;0.00;;;;;;;-0.25;100.00;99420.50;5040915;28;20052;-75
2022/11/23 02:35:03;;;;;;;0.00;0.00;;;;;;;-0.29;100.00;99415.22;5043067;28;20029;-75
2022/11/23 02:37:28;;;;;;;0.00;0.00;;;;;;;-0.32;100.00;99421.19;5038429;28;20040;-75
2022/11/23 02:39:58;;;;;;;0.00;0.00;;;;;;;-0.34;100.00;99419.44;5043290;28;20033;-76
2022/11/23 02:42:25;;;;;;;0.00;0.00;;;;;;;-0.35;100.00;99430.66;5041336;28;20483;-75
2022/11/23 02:45:14;;;;;;;0.00;0.00;;;;;;;-0.28;100.00;99424.75;5040891;28;20602;-76
2022/11/23 02:47:40;;;;;;;0.00;0.00;;;;;;;-0.31;100.00;99422.97;5040233;28;20033;-76
2022/11/23 02:50:07;;;;;;;0.00;0.00;;;;;;;-0.32;100.00;99433.31;5040022;28;20443;-75
2022/11/23 02:52:33;;;;;;;0.00;0.00;;;;;;;-0.34;100.00;99434.97;5043093;28;20032;-76
2022/11/23 02:54:58;;;;;;;0.00;0.00;;;;;;;-0.34;100.00;99440.16;5040175;28;20048;-76
2022/11/23 02:57:23;;;;;;;0.00;0.00;;;;;;;-0.39;100.00;99439.19;5023580;28;20029;-76
2022/11/23 02:59:49;;;;;;;0.00;0.00;;;;;;;-0.41;100.00;99436.59;5008131;28;20037;-75
2022/11/23 03:02:14;;;;;;;0.00;0.00;;;;;;;-0.35;100.00;99443.63;5022727;28;20037;-76
2022/11/23 03:04:39;;;;;;;0.00;0.00;;;;;;;-0.28;100.00;99442.91;5005853;28;20033;-76
2022/11/23 03:07:05;;;;;;;0.00;0.00;;;;;;;-0.20;100.00;99443.06;5040924;28;20094;-76
2022/11/23 03:09:31;;;;;;;0.00;0.00;;;;;;;-0.08;100.00;99441.56;5039791;28;20041;-75
2022/11/23 03:11:56;;;;;;;0.00;0.00;;;;;;;-0.06;100.00;99444.19;5024172;28;20036;-75
2022/11/23 03:14:24;;;;;;;0.00;0.00;;;;;;;-0.10;100.00;99456.22;5007960;28;20107;-75
2022/11/23 03:16:56;;;;;;;0.00;0.00;;;;;;;-0.10;100.00;99447.56;5039029;28;20152;-76
2022/11/23 03:19:22;;;;;;;0.10;0.10;;;;;;;-0.05;100.00;99449.41;5005442;28;20115;-75
2022/11/23 03:21:49;;;;;;;0.10;0.10;;;;;;;-0.08;100.00;99457.13;5013907;28;20118;-76
2022/11/23 03:24:16;;;;;;;0.20;0.20;;;;;;;-0.03;100.00;99454.59;5041354;28;20075;-76
2022/11/23 03:26:42;;;;;;;0.20;0.20;;;;;;;0.06;100.00;99452.19;5008355;28;20036;-76
2022/11/23 03:29:11;;;;;;;0.30;0.30;;;;;;;0.04;100.00;99455.63;5021497;28;20100;-75
2022/11/23 03:31:38;;;;;;;0.40;0.40;;;;;;;0.12;100.00;99454.03;5024371;28;20029;-73
2022/11/23 03:34:08;;;;;;;0.68;0.60;;;;;;;0.16;100.00;99448.94;5007547;28;20035;-73
2022/11/23 03:36:34;;;;;;;1.27;0.83;;;;;;;0.22;100.00;99448.16;5019735;28;20116;-73
2022/11/23 03:39:00;;;;;;;1.50;0.90;;;;;;;0.25;100.00;99440.44;5005408;28;20121;-73
2022/11/23 03:41:59;;;;;;;1.48;1.10;;;;;;;0.24;100.00;99446.47;5001991;28;20505;-76
2022/11/23 03:44:30;;;;;;;1.70;1.20;;;;;;;0.28;100.00;99450.84;5024138;28;20088;-73
2022/11/23 03:46:55;;;;;;;1.45;1.17;;;;;;;0.31;100.00;99455.22;5022061;28;20033;-73
2022/11/23 03:49:21;;;;;;;2.33;1.50;;;;;;;0.29;100.00;99457.81;5020697;28;20096;-75
2022/11/23 03:51:46;;;;;;;2.53;1.67;;;;;;;0.30;100.00;99466.47;5044151;28;20033;-73
2022/11/23 03:54:12;;;;;;;2.60;1.93;;;;;;;0.30;100.00;99467.34;5011089;28;20026;-73
2022/11/23 03:56:38;;;;;;;3.53;2.23;;;;;;;0.35;100.00;99465.69;5010094;28;20037;-73
2022/11/23 03:59:03;;;;;;;2.47;1.97;;;;;;;0.36;100.00;99466.56;5042363;28;20476;-73
2022/11/23 04:01:28;;;;;;;2.97;2.13;;;;;;;0.39;100.00;99472.72;5044797;28;20037;-73
2022/11/23 04:03:59;;;;;;;4.00;2.80;;;;;;;0.42;100.00;99466.69;5024857;28;20037;-73
2022/11/23 04:06:35;;;;;;;4.07;3.17;;;;;;;0.43;100.00;99468.44;5025255;28;20025;-73
2022/11/23 04:09:23;;;;;;;4.35;3.50;;;;;;;0.46;100.00;99465.03;5008285;28;20088;-73
2022/11/23 04:12:11;;;;;;;4.28;3.72;;;;;;;0.53;100.00;99465.16;5039697;28;20103;-73
2022/11/23 04:14:38;;;;;;;5.40;4.80;;;;;;;0.56;100.00;99459.13;5025652;28;20439;-73
2022/11/23 04:17:03;;;;;;;5.60;5.10;;;;;;;0.61;100.00;99460.09;5042768;28;20040;-73
2022/11/23 04:19:29;;;;;;;6.78;6.07;;;;;;;0.75;100.00;99468.09;5008674;28;20049;-73
2022/11/23 04:21:54;;;;;;;6.47;5.80;;;;;;;0.82;100.00;99470.81;5004831;28;20095;-73
2022/11/23 04:24:20;;;;;;;7.05;6.38;;;;;;;0.86;100.00;99467.44;5009684;28;20037;-73
2022/11/23 04:26:46;;;;;;;7.55;6.82;;;;;;;0.96;100.00;99471.03;5026221;28;20141;-73
2022/11/23 04:29:13;;;;;;;7.50;6.80;;;;;;;1.08;100.00;99473.81;5010976;28;20537;-73
2022/11/23 04:31:43;;;;;;;8.30;7.53;;;;;;;1.20;100.00;99467.06;5024457;28;20563;-73
2022/11/23 04:34:12;;;;;;;9.55;8.75;;;;;;;1.26;100.00;99473.22;5024751;28;20060;-73
2022/11/23 04:36:38;;;;;;;11.38;10.32;;;;;;;1.34;100.00;99469.84;5025721;28;20468;-73
2022/11/23 04:39:05;;;;;;;11.15;10.15;;;;;;;1.45;100.00;99470.88;5025858;28;20120;-73
2022/11/23 04:41:38;;;;;;;11.55;10.38;;;;;;;1.47;100.00;99471.78;5004659;28;20034;-73
2022/11/23 04:44:05;;;;;;;11.38;10.43;;;;;;;1.52;100.00;99472.72;5027209;28;20575;-73
2022/11/23 04:46:34;;;;;;;11.70;10.70;;;;;;;1.59;100.00;99476.25;5009721;28;20029;-73
2022/11/23 04:49:04;;;;;;;3.67;2.95;;;;;;;1.54;100.00;99484.00;5008758;28;20396;-73
2022/11/23 04:51:29;;;;;;;2.53;1.65;;;;;;;1.68;100.00;99482.47;5024745;28;20037;-73
2022/11/23 04:53:54;;;;;;;3.00;2.30;;;;;;;1.74;100.00;99486.88;5019838;28;20072;-73
2022/11/23 04:56:21;;;;;;;3.53;2.65;;;;;;;1.80;100.00;99471.31;5025337;28;20041;-73
2022/11/23 04:58:47;;;;;;;4.05;3.00;;;;;;;1.82;100.00;99476.56;5018408;28;20067;-73
2022/11/23 05:01:12;;;;;;;3.97;3.40;;;;;;;1.90;100.00;99474.91;5017482;28;20088;-73
2022/11/23 05:03:57;;;;;;;4.40;3.60;;;;;;;1.93;100.00;99468.00;5039698;28;20430;-73
2022/11/23 05:06:23;;;;;;;5.18;4.13;;;;;;;2.04;100.00;99464.66;5014370;28;20030;-73
2022/11/23 05:08:49;;;;;;;6.15;4.50;;;;;;;2.21;100.00;99467.47;5030521;28;20400;-73
2022/11/23 05:11:33;;;;;;;5.57;4.70;;;;;;;2.26;100.00;99453.63;5039659;28;20143;-73
2022/11/23 05:14:00;;;;;;;5.70;5.03;;;;;;;2.36;100.00;99459.81;5024365;28;20087;-73
2022/11/23 05:16:27;;;;;;;6.25;5.50;;;;;;;2.42;100.00;99450.31;5003655;28;20452;-74
2022/11/23 05:18:52;;;;;;;6.75;6.05;;;;;;;2.37;100.00;99458.94;5008692;28;20037;-73
2022/11/23 05:21:18;;;;;;;6.88;6.28;;;;;;;2.32;100.00;99458.00;5024654;28;20515;-73
2022/11/23 05:23:43;;;;;;;7.20;6.50;;;;;;;2.21;100.00;99460.50;5035957;28;20086;-73
2022/11/23 05:26:09;;;;;;;7.97;7.18;;;;;;;2.29;100.00;99468.41;5013924;28;20045;-73
2022/11/23 05:28:36;;;;;;;8.23;7.53;;;;;;;2.30;100.00;99463.19;5044271;28;20029;-72
2022/11/23 05:31:03;;;;;;;9.27;8.48;;;;;;;2.25;100.00;99464.00;5021746;28;20059;-73
2022/11/23 05:33:29;;;;;;;8.95;8.15;;;;;;;2.31;100.00;99458.88;5022523;28;20033;-73
2022/11/23 05:35:54;;;;;;;6.82;6.13;;;;;;;2.38;100.00;99456.34;5039325;28;20032;-72
2022/11/23 05:38:29;;;;;;;4.30;3.38;;;;;;;2.38;100.00;99455.47;5014984;28;20033;-72
2022/11/23 05:40:58;;;;;;;4.20;3.35;;;;;;;2.47;100.00;99446.88;5019179;28;20025;-72
2022/11/23 05:43:24;;;;;;;4.45;3.42;;;;;;;2.42;100.00;99452.91;5020313;28;20099;-73
2022/11/23 05:45:49;;;;;;;4.30;3.58;;;;;;;2.44;100.00;99455.53;5016285;28;20029;-73
2022/11/23 05:48:16;;;;;;;4.72;4.05;;;;;;;2.51;100.00;99459.91;5023227;28;20041;-73
2022/11/23 05:50:55;;;;;;;5.35;4.85;;;;;;;2.63;100.00;99452.22;5034591;28;20035;-73
2022/11/23 05:53:27;;;;;;;6.45;5.85;;;;;;;2.79;100.00;99462.78;5021991;28;20037;-73
2022/11/23 05:56:00;;;;;;;7.05;6.45;;;;;;;2.86;100.00;99454.16;5021296;28;20060;-73
2022/11/23 05:58:27;;;;;;;0.00;0.00;;;;;;;2.92;100.00;99462.00;5025064;28;20530;-73
2022/11/23 06:00:57;;;;;;;0.00;0.00;;;;;;;2.97;100.00;99465.53;5028361;28;20750;-73
2022/11/23 06:03:22;;;;;;;0.00;0.00;;;;;;;2.99;100.00;99461.19;5027723;28;20037;-73
2022/11/23 06:05:48;;;;;;;0.00;0.00;;;;;;;2.93;100.00;99461.13;5026367;28;20078;-73
2022/11/23 06:08:16;;;;;;;0.00;0.00;;;;;;;2.82;100.00;99454.97;5022274;28;20038;-73
2022/11/23 06:10:43;;;;;;;0.00;0.00;;;;;;;2.70;100.00;99452.25;5028579;28;20017;-73
2022/11/23 06:13:09;;;;;;;0.00;0.00;;;;;;;2.60;100.00;99454.81;5014210;28;20041;-73
2022/11/23 06:15:34;;;;;;;0.00;0.00;;;;;;;2.63;100.00;99460.03;5014883;28;20116;-73
2022/11/23 06:18:01;;;;;;;0.00;0.00;;;;;;;2.69;100.00;99466.16;5023154;28;20036;-73
2022/11/23 06:20:35;;;;;;;0.10;0.10;;;;;;;2.75;100.00;99471.41;5004236;28;20496;-73
2022/11/23 06:23:01;;;;;;;0.10;0.10;;;;;;;2.78;100.00;99469.72;5009176;28;20077;-73
2022/11/23 06:25:27;;;;;;;0.20;0.20;;;;;;;2.78;100.00;99468.88;5023289;28;20029;-73
2022/11/23 06:28:03;;;;;;;0.35;0.32;;;;;;;2.69;100.00;99476.59;5004646;28;20396;-73
2022/11/23 06:30:36;;;;;;;0.47;0.47;;;;;;;2.63;100.00;99480.88;5023796;28;20456;-73
2022/11/23 06:33:05;;;;;;;0.80;0.80;;;;;;;2.55;100.00;99477.34;5008836;28;20030;-73
2022/11/23 06:35:37;;;;;;;0.95;0.85;;;;;;;2.62;100.00;99486.09;5018791;28;20034;-73
2022/11/23 06:38:02;;;;;;;1.33;1.05;;;;;;;2.76;100.00;99481.00;5024393;28;20051;-73
2022/11/23 06:40:27;;;;;;;1.65;1.23;;;;;;;2.86;100.00;99485.44;5008617;28;20035;-73
2022/11/23 06:42:58;;;;;;;2.20;1.58;;;;;;;2.90;100.00;99494.13;5010490;28;20115;-73
2022/11/23 06:45:31;;;;;;;3.30;2.30;;;;;;;2.90;100.00;99491.53;5010565;28;20108;-73
2022/11/23 06:48:01;;;;;;;3.05;2.38;;;;;;;2.86;100.00;99490.63;5026728;28;20121;-73
2022/11/23 06:50:27;;;;;;;3.72;2.80;;;;;;;2.91;100.00;99490.66;5023006;28;20033;-72
2022/11/23 06:52:55;;;;;;;4.07;2.95;;;;;;;2.95;100.00;99490.69;5028747;28;20040;-73
2022/11/23 06:55:24;;;;;;;4.65;3.20;;;;;;;3.01;100.00;99488.16;5024522;28;20120;-73
2022/11/23 06:57:51;;;;;;;3.78;2.80;;;;;;;2.94;100.00;99488.09;5023695;28;20112;-73
2022/11/23 07:00:18;;;;;;;4.22;3.13;;;;;;;2.73;100.00;99486.19;5016919;28;20071;-73
2022/11/23 07:02:43;;;;;;;5.53;4.78;;;;;;;2.70;100.00;99487.03;5024315;28;20142;-73
2022/11/23 07:05:09;;;;;;;4.75;3.97;;;;;;;2.62;100.00;99486.97;5025248;28;20105;-73
2022/11/23 07:07:35;;;;;;;4.95;3.65;;;;;;;2.47;100.00;99493.75;5023317;28;20392;-73
2022/11/23 07:10:08;;;;;;;;;;;;;;;2.39;100.00;99494.53;5029249;28;20095;-73
2022/11/23 07:12:45;;;;;;;27.27;25.88;;;;;;;2.29;100.00;99502.25;5004283;28;19913;-73
2022/11/23 07:15:13;;;;;;;35.05;33.42;;;;;;;2.31;100.00;99501.41;5031350;23;20052;-76
2022/11/23 07:17:40;;;;;;;27.45;26.08;;;;;;;2.36;100.00;99504.06;5019382;28;20112;-76
2022/11/23 07:20:08;;;;;;;28.48;27.08;;;;;;;2.35;100.00;99507.50;5002828;28;20037;-75
2022/11/23 07:22:34;;;;;;;40.78;38.88;;;;;;;2.24;100.00;99501.31;5024940;28;20460;-76
2022/11/23 07:25:00;;;;;;;40.15;38.33;;;;;;;2.17;100.00;99501.28;5033761;28;20041;-76
2022/11/23 07:27:25;;;;;;;53.17;50.78;;;;;;;2.13;100.00;99506.41;5000604;28;20837;-76
2022/11/23 07:29:51;;;;;;;20.70;19.67;;;;;;;2.10;100.00;99509.84;5008104;28;20507;-76
2022/11/23 07:32:17;;;;;;;13.32;12.63;;;;;;;2.08;100.00;99508.97;4993315;28;20179;-75
2022/11/23 07:34:42;;;;;;;6.07;5.68;;;;;;;1.98;100.00;99507.97;5005396;28;20045;-76
2022/11/23 07:37:08;;;;;;;3.90;3.60;;;;;;;1.91;100.00;99513.06;5007361;28;20037;-76
2022/11/23 07:39:35;;;;;;;2.70;2.50;;;;;;;1.86;100.00;99514.75;5007682;28;20041;-76
2022/11/23 07:42:00;;;;;;;1.80;1.70;;;;;;;1.82;100.00;99515.56;5023881;28;20038;-76
2022/11/23 07:44:32;;;;;;;1.10;1.00;;;;;;;1.82;100.00;99518.19;5020163;28;20029;-76
2022/11/23 07:46:57;;;;;;;0.88;0.88;;;;;;;1.83;100.00;99517.31;5021934;28;20034;-76
2022/11/23 07:49:22;;;;;;;0.70;0.70;;;;;;;1.81;100.00;99525.13;5023045;28;20030;-76
2022/11/23 07:51:48;;;;;;;1.35;1.25;;;;;;;1.86;100.00;99519.94;5025624;28;20052;-76
2022/11/23 07:54:13;;;;;;;1.05;1.05;;;;;;;2.00;100.00;99520.16;5024320;28;20041;-76
2022/11/23 07:56:39;;;;;;;0.80;0.80;;;;;;;2.19;100.00;99525.56;5023977;28;20073;-74
2022/11/23 07:59:04;;;;;;;0.50;0.50;;;;;;;2.42;100.00;99525.81;5025385;28;20033;-76
2022/11/23 08:01:30;;;;;;;0.40;0.40;;;;;;;2.69;100.00;99520.88;5021053;28;20037;-76
2022/11/23 08:03:56;;;;;;;0.30;0.30;;;;;;;2.91;100.00;99516.72;5019173;28;20099;-76
2022/11/23 08:06:21;;;;;;;0.20;0.20;;;;;;;3.07;100.00;99516.00;5018226;28;20038;-76
2022/11/23 08:08:46;;;;;;;0.10;0.10;;;;;;;3.21;100.00;99516.09;5024549;28;20049;-76
2022/11/23 08:11:17;;;;;;;0.10;0.10;;;;;;;3.28;100.00;99520.50;5024316;28;20045;-76
2022/11/23 08:13:42;;;;;;;0.10;0.10;;;;;;;3.37;100.00;99517.94;5021529;28;20042;-76
2022/11/23 08:16:07;;;;;;;0.10;0.10;;;;;;;3.44;100.00;99531.91;5021427;28;20419;-76
2022/11/23 08:18:33;;;;;;;0.10;0.10;;;;;;;3.51;100.00;99529.34;5004449;28;20038;-76
2022/11/23 08:21:00;;;;;;;0.10;0.10;;;;;;;3.61;100.00;99527.66;5023423;28;20048;-76
2022/11/23 08:23:26;;;;;;;1999.90;999.90;;;;;;;3.59;100.00;99518.06;5023988;28;20030;-76
2022/11/23 08:25:51;;;;;;;1999.90;999.90;;;;;;;3.60;100.00;99527.66;5022824;28;20044;-76
2022/11/23 08:28:17;;;;;;;1999.90;999.90;;;;;;;3.59;100.00;99518.06;5020918;28;20169;-76
2022/11/23 08:30:43;;;;;;;1999.90;999.90;;;;;;;3.60;100.00;99525.91;5024845;28;20112;-76
2022/11/23 08:33:09;;;;;;;1999.90;999.90;;;;;;;3.62;100.00;99521.59;5022475;28;20033;-76
2022/11/23 08:35:36;;;;;;;1999.90;999.90;;;;;;;3.66;100.00;99517.25;5016604;28;20033;-76
2022/11/23 08:38:03;;;;;;;1999.90;999.90;;;;;;;3.68;100.00;99512.91;5020632;28;20514;-76
2022/11/23 08:40:28;;;;;;;1999.90;999.90;;;;;;;3.66;100.00;99519.84;5024783;28;20044;-76
2022/11/23 08:42:53;;;;;;;1999.90;999.90;;;;;;;3.65;100.00;99524.22;5022335;28;20041;-76
2022/11/23 08:45:19;;;;;;;1999.90;999.90;;;;;;;3.67;100.00;99526.84;5020385;28;20110;-76
2022/11/23 08:47:45;;;;;;;1999.90;999.90;;;;;;;3.67;100.00;99519.00;5024682;28;20107;-76
2022/11/23 08:50:10;;;;;;;1999.90;999.90;;;;;;;3.65;100.00;99518.13;5023189;28;20080;-76
2022/11/23 08:52:35;;;;;;;1999.90;999.90;;;;;;;3.65;100.00;99516.38;5023694;28;20407;-76
2022/11/23 08:55:00;;;;;;;1999.90;999.90;;;;;;;3.68;100.00;99526.84;5020847;28;20466;-76
2022/11/23 08:57:26;;;;;;;1999.90;999.90;;;;;;;3.74;100.00;99526.00;5024439;28;20037;-76
2022/11/23 08:59:52;;;;;;;1999.90;999.90;;;;;;;3.78;100.00;99527.75;5021859;28;20038;-76
2022/11/23 09:02:17;;;;;;;1999.90;999.90;;;;;;;3.86;100.00;99528.66;5024748;28;20041;-76
2022/11/23 09:04:42;;;;;;;1999.90;999.90;;;;;;;3.93;100.00;99533.06;5024119;28;20113;-76
2022/11/23 09:07:08;;;;;;;1999.90;999.90;;;;;;;3.99;100.00;99533.97;5018815;28;20045;-76
2022/11/23 09:09:33;;;;;;;1999.90;999.90;;;;;;;4.02;100.00;99533.97;5023079;28;20036;-76
2022/11/23 09:11:58;;;;;;;1999.90;999.90;;;;;;;4.07;100.00;99529.63;5020815;28;20045;-76
2022/11/23 09:14:26;;;;;;;1999.90;999.90;;;;;;;4.15;100.00;99533.16;5021576;28;20069;-76
2022/11/23 09:16:52;;;;;;;1999.90;999.90;;;;;;;4.18;100.00;99527.94;5017707;28;20034;-76
2022/11/23 09:19:17;;;;;;;1999.90;999.90;;;;;;;4.29;100.00;99526.22;5023883;28;20116;-76
2022/11/23 09:21:42;;;;;;;1999.90;999.90;;;;;;;4.41;100.00;99529.75;5020249;28;20025;-76
2022/11/23 09:24:12;;;;;;;1999.90;999.90;;;;;;;4.52;100.00;99534.13;5026575;28;20055;-76
2022/11/23 09:26:38;;;;;;;1999.90;999.90;;;;;;;4.58;100.00;99528.03;5019344;28;20043;-76
2022/11/23 09:29:05;;;;;;;1999.90;999.90;;;;;;;4.68;100.00;99532.41;5021135;28;20029;-76
2022/11/23 09:31:30;;;;;;;1999.90;999.90;;;;;;;4.75;100.00;99521.09;5023921;28;20033;-76
2022/11/23 09:33:56;;;;;;;1999.90;999.90;;;;;;;4.85;100.00;99516.78;5022248;28;20490;-76
2022/11/23 09:36:24;;;;;;;1999.90;999.90;;;;;;;4.95;100.00;99517.63;5017202;28;20034;-76
2022/11/23 09:38:50;;;;;;;1999.90;999.90;;;;;;;5.02;100.00;99520.25;5023928;28;20079;-76
2022/11/23 09:41:57;;;;;;;1999.90;999.90;;;;;;;5.12;100.00;99521.13;5021013;28;20034;-76
2022/11/23 09:45:07;;;;;;;1999.90;999.90;;;;;;;5.16;100.00;99522.88;5017387;28;20041;-76
2022/11/23 09:48:04;;;;;;;1999.90;999.90;;;;;;;5.31;100.00;99521.97;4945406;29;20043;-76
2022/11/23 09:50:42;;;;;;;1999.90;999.90;;;;;;;5.44;100.00;99517.59;5018607;28;20435;-76
2022/11/23 09:53:14;;;;;;;1999.90;999.90;;;;;;;5.56;100.00;99520.19;5013275;28;20049;-76
2022/11/23 09:55:43;;;;;;;1999.90;999.90;;;;;;;5.65;100.00;99512.31;5019293;28;20139;-76
2022/11/23 09:58:12;;;;;;;1999.90;999.90;;;;;;;5.76;100.00;99514.03;5018265;28;20487;-75
2022/11/23 10:00:44;;;;;;;1999.90;999.90;;;;;;;5.82;98.84;99514.91;5017978;28;20596;-76
2022/11/23 10:03:15;;;;;;;1999.90;999.90;;;;;;;5.83;98.46;99511.41;5021019;28;20399;-76
2022/11/23 10:05:46;;;;;;;1999.90;999.90;;;;;;;5.89;98.50;99502.63;5013668;28;20049;-76
2022/11/23 10:08:17;;;;;;;1999.90;999.90;;;;;;;5.96;98.93;99498.31;5019111;28;20034;-76
2022/11/23 10:10:52;;;;;;;1999.90;999.90;;;;;;;6.01;97.69;99502.63;5021747;28;20029;-76
2022/11/23 10:13:36;;;;;;;1999.90;999.90;;;;;;;6.09;97.53;99493.00;5016835;28;20041;-76
2022/11/23 10:16:18;;;;;;;1999.90;999.90;;;;;;;6.21;97.17;99502.56;5020068;28;20500;-76
2022/11/23 10:18:59;;;;;;;1999.90;999.90;;;;;;;6.31;96.65;99498.13;5017055;28;20088;-76
2022/11/23 10:21:46;;;;;;;1999.90;999.90;;;;;;;6.36;97.13;99491.97;5002732;28;20057;-76
2022/11/23 10:24:23;;;;;;;1999.90;999.90;;;;;;;6.43;96.83;99491.94;5017865;28;20048;-76
2022/11/23 10:26:49;;;;;;;1999.90;999.90;;;;;;;6.51;96.93;99496.25;5018101;28;20044;-76
2022/11/23 10:29:29;;;;;;;1999.90;999.90;;;;;;;6.66;97.01;99487.44;5021320;28;20033;-76
2022/11/23 10:31:55;;;;;;;1999.90;999.90;;;;;;;6.74;95.82;99484.75;5020335;28;20026;-76
2022/11/23 10:34:25;;;;;;;1999.90;999.90;;;;;;;6.79;95.98;99486.47;5022714;28;20041;-76
2022/11/23 10:36:50;;;;;;;1999.90;999.90;;;;;;;6.87;95.07;99496.03;5013670;28;20034;-76
2022/11/23 10:39:23;;;;;;;1999.90;999.90;;;;;;;6.94;93.96;99490.72;5021781;28;20091;-76
2022/11/23 10:41:50;;;;;;;1999.90;999.90;;;;;;;7.10;93.36;99491.47;5022418;28;20597;-76
2022/11/23 10:44:29;;;;;;;1999.90;999.90;;;;;;;7.22;92.44;99496.59;5010932;28;20060;-76
2022/11/23 10:46:54;;;;;;;1999.90;999.90;;;;;;;7.28;91.71;99493.03;5017852;28;20033;-76
2022/11/23 10:49:32;;;;;;;1999.90;999.90;;;;;;;7.41;91.16;99486.81;5019032;28;20125;-76
2022/11/23 10:52:19;;;;;;;1999.90;999.90;;;;;;;7.55;90.78;99488.41;5017477;28;20045;-76
2022/11/23 10:54:44;;;;;;;1999.90;999.90;;;;;;;7.61;89.59;99485.72;5016652;28;20042;-76
2022/11/23 10:57:28;;;;;;;1999.90;999.90;;;;;;;7.57;88.34;99487.50;5021609;28;20037;-76
2022/11/23 11:00:13;;;;;;;1999.90;999.90;;;;;;;7.67;88.69;99477.75;5016929;28;20080;-79
2022/11/23 11:02:39;;;;;;;1999.90;999.90;;;;;;;7.75;89.19;99481.16;5018715;28;20071;-77
2022/11/23 11:05:32;;;;;;;1999.90;999.90;;;;;;;7.84;87.48;99473.19;5019880;28;20408;-77
2022/11/23 11:08:19;;;;;;;1999.90;999.90;;;;;;;7.71;87.38;99471.59;5014859;28;20056;-77
2022/11/23 11:10:49;;;;;;;1999.90;999.90;;;;;;;7.59;89.07;99474.34;5016896;28;20065;-77
2022/11/23 11:13:29;;;;;;;1999.90;999.90;;;;;;;7.62;89.36;99474.31;5019585;28;20087;-76
2022/11/23 11:16:00;;;;;;;1999.90;999.90;;;;;;;7.71;89.90;99479.47;5009424;28;20037;-76
2022/11/23 11:18:36;;;;;;;1999.90;999.90;;;;;;;7.81;88.93;99478.47;5019266;28;20440;-77
2022/11/23 11:21:16;;;;;;;1999.90;999.90;;;;;;;7.89;88.23;99479.25;5015793;28;20049;-77
2022/11/23 11:23:46;;;;;;;1999.90;999.90;;;;;;;8.00;88.44;99473.88;5019941;28;20091;-76
2022/11/23 11:26:22;;;;;;;1999.90;999.90;;;;;;;8.11;87.72;99468.47;5009450;28;20066;-77
2022/11/23 11:28:50;;;;;;;1999.90;999.90;;;;;;;8.19;87.77;99463.97;5019369;28;20481;-77
2022/11/23 11:31:22;;;;;;;1999.90;999.90;;;;;;;8.31;86.08;99465.59;5018775;28;20099;-77